createdAt,value
2019-02-06T00:03:03.949Z,13.10
2019-02-06T00:04:03.572Z,13.90
2019-02-06T00:06:00.363Z,12.20
2019-02-06T04:06:21.765Z,7.00
2019-02-06T04:07:21.719Z,8.20
2019-02-06T04:08:21.715Z,6.60
2019-02-06T04:09:21.606Z,7.70
2019-02-06T04:10:21.577Z,6.60
2019-02-06T04:11:21.518Z,7.40
2019-02-06T04:12:30.122Z,8.40
2019-02-06T04:14:14.792Z,7.30
2019-02-06T04:15:14.722Z,7.10
2019-02-06T04:16:14.685Z,7.70
2019-02-06T04:17:14.630Z,7.70
2019-02-06T04:18:14.583Z,7.30
2019-02-06T04:19:14.535Z,7.30
2019-02-06T04:20:14.492Z,6.60
2019-02-06T04:21:14.540Z,6.50
2019-02-06T04:22:14.484Z,6.90
2019-02-06T04:23:14.471Z,7.50
2019-02-06T04:24:14.331Z,8.50
2019-02-06T04:25:14.297Z,7.00
2019-02-06T04:26:14.245Z,7.90
2019-02-06T04:27:14.192Z,7.30
2019-02-06T04:28:14.148Z,7.50
2019-02-06T04:29:14.137Z,6.50
2019-02-06T04:30:14.059Z,7.50
2019-02-06T04:31:14.012Z,8.40
2019-02-06T04:32:13.972Z,6.40
2019-02-06T04:33:13.932Z,8.10
2019-02-06T04:34:13.890Z,6.80
2019-02-06T04:35:13.862Z,8.00
2019-02-06T04:36:13.799Z,7.50
2019-02-06T04:37:13.762Z,7.30
2019-02-06T04:38:13.710Z,7.20
2019-02-06T04:39:13.681Z,7.50
2019-02-06T04:40:13.626Z,7.40
2019-02-06T04:41:13.580Z,8.90
2019-02-06T04:42:13.538Z,8.20
2019-02-06T04:43:13.491Z,8.70
2019-02-06T04:44:13.446Z,7.60
2019-02-06T04:45:13.407Z,7.40
2019-02-06T04:46:13.363Z,8.00
2019-02-06T04:47:13.321Z,7.70
2019-02-06T04:48:13.273Z,8.20
2019-02-06T04:49:13.235Z,7.80
2019-02-06T04:50:13.191Z,7.70
2019-02-06T04:51:13.151Z,6.60
2019-02-06T04:52:13.111Z,7.00
2019-02-06T04:53:13.076Z,7.00
2019-02-06T04:54:13.021Z,8.90
2019-02-06T04:55:12.974Z,8.70
2019-02-06T04:56:12.934Z,8.90
2019-02-06T04:57:12.924Z,7.80
2019-02-06T04:58:12.848Z,6.60
2019-02-06T04:59:12.809Z,7.30
2019-02-06T05:00:12.756Z,7.30
2019-02-06T05:01:12.715Z,7.20
2019-02-06T05:02:12.675Z,6.00
2019-02-06T05:03:12.632Z,7.70
2019-02-06T05:04:12.643Z,7.10
2019-02-06T05:05:12.544Z,6.70
2019-02-06T05:06:12.499Z,7.30
2019-02-06T05:07:19.209Z,8.30
2019-02-06T05:08:12.413Z,6.40
2019-02-06T05:09:12.369Z,7.70
2019-02-06T05:10:12.331Z,7.10
2019-02-06T05:11:12.317Z,7.50
2019-02-06T05:12:12.253Z,7.40
2019-02-06T05:13:12.223Z,8.80
2019-02-06T05:14:12.158Z,7.10
2019-02-06T05:15:12.116Z,8.20
2019-02-06T05:16:12.074Z,7.50
2019-02-06T05:17:12.050Z,8.50
2019-02-06T05:18:11.981Z,8.80
2019-02-06T05:19:11.937Z,7.80
2019-02-06T05:20:11.894Z,7.90
2019-02-06T05:21:11.853Z,7.90
2019-02-06T05:22:11.813Z,7.80
2019-02-06T05:23:20.422Z,7.60
2019-02-06T05:25:25.236Z,7.80
2019-02-06T05:26:25.764Z,6.90
2019-02-06T05:28:29.564Z,8.10
2019-02-06T05:29:29.109Z,9.00
2019-02-06T05:31:25.902Z,6.90
2019-02-06T05:32:34.446Z,7.40
2019-02-06T05:34:19.150Z,8.70
2019-02-06T05:35:19.077Z,8.40
2019-02-06T05:36:19.034Z,8.00
2019-02-06T05:37:31.234Z,7.50
2019-02-06T05:38:18.949Z,7.50
2019-02-06T05:39:18.903Z,6.50
2019-02-06T05:40:18.859Z,7.00
2019-02-06T05:41:18.858Z,8.00
2019-02-06T05:42:18.789Z,7.20
2019-02-06T05:43:18.756Z,7.40
2019-02-06T05:44:18.695Z,6.90
2019-02-06T05:45:18.651Z,6.20
2019-02-06T05:46:18.628Z,5.70
2019-02-06T05:47:18.558Z,6.30
2019-02-06T05:48:18.517Z,5.40
2019-02-06T05:49:18.477Z,6.20
2019-02-06T05:50:18.433Z,5.50
2019-02-06T05:51:18.389Z,6.30
2019-02-06T05:52:18.384Z,6.40
2019-02-06T05:53:18.325Z,6.90
2019-02-06T05:54:18.261Z,6.90
2019-02-06T05:55:18.262Z,7.10
2019-02-06T05:56:18.176Z,7.80
2019-02-06T05:57:18.129Z,7.70
2019-02-06T05:58:18.086Z,7.30
2019-02-06T05:59:18.041Z,7.20
2019-02-06T06:00:18.004Z,7.40
2019-02-06T06:01:17.959Z,8.60
2019-02-06T06:02:17.919Z,8.50
2019-02-06T06:03:17.876Z,7.80
2019-02-06T06:04:17.828Z,7.00
2019-02-06T06:05:17.781Z,8.20
2019-02-06T06:06:17.741Z,7.90
2019-02-06T06:07:17.708Z,6.70
2019-02-06T06:08:17.650Z,6.80
2019-02-06T06:09:17.616Z,6.30
2019-02-06T06:10:17.566Z,6.50
2019-02-06T06:11:17.524Z,7.20
2019-02-06T06:12:17.495Z,6.60
2019-02-06T06:13:18.511Z,6.90
2019-02-06T06:14:17.396Z,7.00
2019-02-06T06:15:17.366Z,9.80
2019-02-06T06:16:17.313Z,6.60
2019-02-06T06:17:17.262Z,6.40
2019-02-06T06:18:17.223Z,7.50
2019-02-06T06:19:17.177Z,7.20
2019-02-06T06:20:17.131Z,7.90
2019-02-06T06:21:17.094Z,8.40
2019-02-06T06:22:17.048Z,9.90
2019-02-06T06:23:17.006Z,9.70
2019-02-06T06:24:16.973Z,7.20
2019-02-06T06:25:17.284Z,6.20
2019-02-06T06:26:16.879Z,9.50
2019-02-06T06:27:16.832Z,8.50
2019-02-06T06:28:16.807Z,7.80
2019-02-06T06:29:16.754Z,8.70
2019-02-06T06:30:16.725Z,7.30
2019-02-06T06:31:16.714Z,7.60
2019-02-06T06:32:16.622Z,7.90
2019-02-06T06:33:16.578Z,8.70
2019-02-06T06:34:16.552Z,8.60
2019-02-06T06:35:16.491Z,7.80
2019-02-06T06:36:16.446Z,9.00
2019-02-06T06:37:16.397Z,7.60
2019-02-06T06:38:16.355Z,8.40
2019-02-06T06:39:16.313Z,6.20
2019-02-06T06:40:16.268Z,6.30
2019-02-06T06:41:16.233Z,9.40
2019-02-06T06:42:16.190Z,7.60
2019-02-06T06:43:16.560Z,7.00
2019-02-06T06:44:16.106Z,8.50
2019-02-06T06:45:16.062Z,7.20
2019-02-06T06:46:16.024Z,6.50
2019-02-06T06:47:15.969Z,8.20
2019-02-06T06:48:15.935Z,7.10
2019-02-06T06:49:15.900Z,7.00
2019-02-06T06:50:15.921Z,6.80
2019-02-06T06:51:15.797Z,6.70
2019-02-06T06:52:15.760Z,7.40
2019-02-06T06:53:16.107Z,5.60
2019-02-06T06:54:15.667Z,6.80
2019-02-06T06:55:15.623Z,8.60
2019-02-06T06:56:15.583Z,7.70
2019-02-06T06:57:15.537Z,6.60
2019-02-06T06:58:15.495Z,6.70
2019-02-06T06:59:15.453Z,7.00
2019-02-06T07:00:15.425Z,6.30
2019-02-06T07:01:15.363Z,7.90
2019-02-06T07:02:15.331Z,6.80
2019-02-06T07:03:15.275Z,6.30
2019-02-06T07:04:15.241Z,8.70
2019-02-06T07:05:15.196Z,8.40
2019-02-06T07:06:15.148Z,7.10
2019-02-06T07:07:15.133Z,7.40
2019-02-06T07:08:15.066Z,8.70
2019-02-06T07:09:15.131Z,6.80
2019-02-06T07:10:15.018Z,8.00
2019-02-06T07:11:14.932Z,7.00
2019-02-06T07:12:14.886Z,6.40
2019-02-06T07:13:14.849Z,6.50
2019-02-06T07:14:14.807Z,7.40
2019-02-06T07:15:14.760Z,6.30
2019-02-06T07:16:14.714Z,7.30
2019-02-06T07:17:14.678Z,6.70
2019-02-06T07:18:14.665Z,7.20
2019-02-06T07:19:14.659Z,7.40
2019-02-06T07:20:14.644Z,8.10
2019-02-06T07:21:14.639Z,8.40
2019-02-06T07:22:14.530Z,7.30
2019-02-06T07:23:14.492Z,7.30
2019-02-06T07:24:14.372Z,7.60
2019-02-06T07:25:14.335Z,7.90
2019-02-06T07:26:14.290Z,8.00
2019-02-06T07:27:14.273Z,7.20
2019-02-06T07:28:14.364Z,7.70
2019-02-06T07:29:14.181Z,8.80
2019-02-06T07:30:14.114Z,6.80
2019-02-06T07:31:14.077Z,7.30
2019-02-06T07:32:14.033Z,7.50
2019-02-06T07:33:13.996Z,7.30
2019-02-06T07:34:13.939Z,7.70
2019-02-06T07:35:13.899Z,7.90
2019-02-06T07:36:13.871Z,7.50
2019-02-06T07:37:13.815Z,9.60
2019-02-06T07:38:23.933Z,8.30
2019-02-06T07:39:13.730Z,9.80
2019-02-06T07:40:16.758Z,9.10
2019-02-06T07:41:13.653Z,8.80
2019-02-06T07:42:13.612Z,9.00
2019-02-06T07:43:13.553Z,8.70
2019-02-06T07:44:13.609Z,10.90
2019-02-06T07:45:13.473Z,9.40
2019-02-06T07:46:13.435Z,8.90
2019-02-06T07:47:13.503Z,9.40
2019-02-06T07:48:13.340Z,8.80
2019-02-06T07:49:13.477Z,8.60
2019-02-06T07:50:13.289Z,7.50
2019-02-06T07:51:13.239Z,9.80
2019-02-06T07:52:13.171Z,9.80
2019-02-06T07:53:13.126Z,9.40
2019-02-06T07:54:13.081Z,10.50
2019-02-06T07:55:13.037Z,9.00
2019-02-06T07:56:13.040Z,9.30
2019-02-06T07:57:13.309Z,9.20
2019-02-06T07:58:12.920Z,10.70
2019-02-06T07:59:14.044Z,11.60
2019-02-06T08:00:12.863Z,9.00
2019-02-06T08:01:13.955Z,9.90
2019-02-06T08:02:16.799Z,8.90
2019-02-06T08:03:12.700Z,8.30
2019-02-06T08:04:12.655Z,9.20
2019-02-06T08:05:12.614Z,9.60
2019-02-06T08:06:12.637Z,9.10
2019-02-06T08:07:12.522Z,9.50
2019-02-06T08:08:12.483Z,9.80
2019-02-06T08:09:12.447Z,9.70
2019-02-06T08:10:12.400Z,9.40
2019-02-06T08:11:12.393Z,12.00
2019-02-06T08:12:12.314Z,9.80
2019-02-06T08:13:12.271Z,9.40
2019-02-06T08:14:12.228Z,9.50
2019-02-06T08:15:12.181Z,9.30
2019-02-06T08:16:12.140Z,9.10
2019-02-06T08:17:12.099Z,8.30
2019-02-06T08:18:12.061Z,9.60
2019-02-06T08:19:12.013Z,8.90
2019-02-06T08:20:11.972Z,8.30
2019-02-06T08:21:11.934Z,9.90
2019-02-06T08:22:11.886Z,9.20
2019-02-06T08:23:11.845Z,11.20
2019-02-06T08:24:11.800Z,11.50
2019-02-06T08:25:11.759Z,9.80
2019-02-06T08:26:11.710Z,10.80
2019-02-06T08:27:11.670Z,8.80
2019-02-06T08:28:11.631Z,11.70
2019-02-06T08:29:11.589Z,9.30
2019-02-06T08:30:11.547Z,10.50
2019-02-06T08:31:11.504Z,10.00
2019-02-06T08:32:11.459Z,9.90
2019-02-06T08:33:11.420Z,9.20
2019-02-06T08:34:11.369Z,10.60
2019-02-06T08:35:11.334Z,8.90
2019-02-06T08:36:11.290Z,9.00
2019-02-06T08:37:11.250Z,10.50
2019-02-06T08:38:11.199Z,9.50
2019-02-06T08:39:11.161Z,10.40
2019-02-06T08:40:11.116Z,11.00
2019-02-06T08:41:11.075Z,10.50
2019-02-06T08:42:11.037Z,9.50
2019-02-06T08:43:10.994Z,9.20
2019-02-06T08:44:10.948Z,9.00
2019-02-06T08:45:10.904Z,12.00
2019-02-06T08:46:10.862Z,9.60
2019-02-06T08:47:10.821Z,9.40
2019-02-06T08:48:10.778Z,10.10
2019-02-06T08:49:11.035Z,8.80
2019-02-06T08:50:10.747Z,10.00
2019-02-06T08:51:10.648Z,9.80
2019-02-06T08:52:10.604Z,10.60
2019-02-06T08:53:10.568Z,9.80
2019-02-06T08:54:10.525Z,9.60
2019-02-06T08:55:10.482Z,10.40
2019-02-06T08:56:10.439Z,10.30
2019-02-06T08:57:10.393Z,9.80
2019-02-06T08:58:10.351Z,8.90
2019-02-06T08:59:10.305Z,8.90
2019-02-06T09:00:10.267Z,11.30
2019-02-06T09:01:10.226Z,11.20
2019-02-06T09:02:10.186Z,10.90
2019-02-06T09:03:10.140Z,8.70
2019-02-06T09:04:10.100Z,9.30
2019-02-06T09:05:10.165Z,9.80
2019-02-06T09:06:10.014Z,8.60
2019-02-06T09:07:09.976Z,9.30
2019-02-06T09:08:09.929Z,10.90
2019-02-06T09:09:09.883Z,9.90
2019-02-06T09:10:09.856Z,10.60
2019-02-06T09:11:09.798Z,8.90
2019-02-06T09:12:09.757Z,10.00
2019-02-06T09:13:09.719Z,7.30
2019-02-06T09:14:09.672Z,10.10
2019-02-06T09:15:09.632Z,8.50
2019-02-06T09:16:09.586Z,10.30
2019-02-06T09:17:09.545Z,7.80
2019-02-06T09:18:09.506Z,8.20
2019-02-06T09:19:09.460Z,8.50
2019-02-06T09:20:09.419Z,7.40
2019-02-06T09:21:09.375Z,6.20
2019-02-06T09:22:09.336Z,5.40
2019-02-06T09:23:09.289Z,5.30
2019-02-06T09:24:09.278Z,6.90
2019-02-06T09:25:09.208Z,6.30
2019-02-06T09:26:09.196Z,5.60
2019-02-06T09:27:09.122Z,5.10
2019-02-06T09:28:09.153Z,6.20
2019-02-06T09:29:09.041Z,6.40
2019-02-06T09:30:08.993Z,6.70
2019-02-06T09:31:08.948Z,6.20
2019-02-06T09:32:08.927Z,6.50
2019-02-06T09:33:08.869Z,8.00
2019-02-06T09:34:09.815Z,7.50
2019-02-06T09:35:08.790Z,6.00
2019-02-06T09:36:08.745Z,6.60
2019-02-06T09:37:08.701Z,5.70
2019-02-06T09:38:08.678Z,6.70
2019-02-06T09:39:11.672Z,6.00
2019-02-06T09:40:08.575Z,8.40
2019-02-06T09:41:08.537Z,5.80
2019-02-06T09:42:08.501Z,5.30
2019-02-06T09:43:08.449Z,5.90
2019-02-06T09:44:08.407Z,6.20
2019-02-06T09:45:08.368Z,6.70
2019-02-06T09:46:08.325Z,5.30
2019-02-06T09:47:08.293Z,4.90
2019-02-06T09:48:08.240Z,5.20
2019-02-06T09:49:08.200Z,5.20
2019-02-06T09:50:08.186Z,5.30
2019-02-06T09:51:08.113Z,6.80
2019-02-06T09:52:08.077Z,5.90
2019-02-06T09:53:08.043Z,6.80
2019-02-06T09:54:07.995Z,5.60
2019-02-06T09:55:07.968Z,4.60
2019-02-06T09:56:07.908Z,4.20
2019-02-06T09:57:07.870Z,4.40
2019-02-06T09:58:07.839Z,3.80
2019-02-06T09:59:07.785Z,5.60
2019-02-06T10:00:07.743Z,5.00
2019-02-06T10:01:07.701Z,5.70
2019-02-06T10:02:09.426Z,4.70
2019-02-06T10:03:07.617Z,5.40
2019-02-06T10:04:07.575Z,4.00
2019-02-06T10:05:07.536Z,5.10
2019-02-06T10:19:47.922Z,4.20
2019-02-06T10:20:38.966Z,4.40
2019-02-06T10:21:38.802Z,4.60
2019-02-06T10:22:38.715Z,6.60
2019-02-06T10:23:38.565Z,4.70
2019-02-06T10:24:38.521Z,5.40
2019-02-06T10:25:38.476Z,5.40
2019-02-06T10:26:38.435Z,4.90
2019-02-06T10:27:38.398Z,5.90
2019-02-06T10:28:38.364Z,5.70
2019-02-06T10:29:38.309Z,6.00
2019-02-06T10:30:38.271Z,5.50
2019-02-06T10:31:38.249Z,5.50
2019-02-06T10:32:38.179Z,7.10
2019-02-06T10:33:38.209Z,7.20
2019-02-06T10:34:38.101Z,5.10
2019-02-06T10:35:38.078Z,5.70
2019-02-06T10:36:38.015Z,4.90
2019-02-06T10:37:37.971Z,5.80
2019-02-06T10:38:37.932Z,6.80
2019-02-06T10:39:37.893Z,6.60
2019-02-06T10:40:37.880Z,7.00
2019-02-06T10:41:37.823Z,5.40
2019-02-06T10:42:37.820Z,6.70
2019-02-06T10:43:37.724Z,5.40
2019-02-06T10:44:37.683Z,5.40
2019-02-06T10:45:37.644Z,5.40
2019-02-06T10:46:37.602Z,5.80
2019-02-06T10:47:37.563Z,6.40
2019-02-06T10:48:37.523Z,5.60
2019-02-06T10:49:37.507Z,5.40
2019-02-06T10:50:37.469Z,7.00
2019-02-06T10:51:37.398Z,5.70
2019-02-06T10:52:37.360Z,5.70
2019-02-06T10:53:37.334Z,5.60
2019-02-06T10:54:37.275Z,6.50
2019-02-06T10:55:37.235Z,5.40
2019-02-06T10:56:37.192Z,7.10
2019-02-06T10:57:37.159Z,6.20
2019-02-06T10:58:37.112Z,6.20
2019-02-06T10:59:37.070Z,6.50
2019-02-06T11:00:37.031Z,6.00
2019-02-06T11:01:36.992Z,7.90
2019-02-06T11:02:36.955Z,7.50
2019-02-06T11:03:36.907Z,5.30
2019-02-06T11:04:36.871Z,8.40
2019-02-06T11:05:36.826Z,6.40
2019-02-06T11:06:36.786Z,6.10
2019-02-06T11:07:36.743Z,7.80
2019-02-06T11:08:36.700Z,8.00
2019-02-06T11:09:45.971Z,5.90
2019-02-06T11:10:36.624Z,7.10
2019-02-06T11:11:36.581Z,5.70
2019-02-06T11:12:36.546Z,6.20
2019-02-06T11:13:36.506Z,5.80
2019-02-06T11:14:36.462Z,7.00
2019-02-06T11:15:36.416Z,7.00
2019-02-06T11:16:36.381Z,6.30
2019-02-06T11:17:36.332Z,6.20
2019-02-06T11:18:36.292Z,6.50
2019-02-06T11:19:36.262Z,6.90
2019-02-06T11:20:36.218Z,6.30
2019-02-06T11:21:36.176Z,5.10
2019-02-06T11:22:36.134Z,5.80
2019-02-06T11:23:36.105Z,5.60
2019-02-06T11:24:36.055Z,6.90
2019-02-06T11:25:36.027Z,7.10
2019-02-06T11:26:35.989Z,6.60
2019-02-06T11:27:35.932Z,6.70
2019-02-06T11:28:35.887Z,6.90
2019-02-06T11:29:35.846Z,6.30
2019-02-06T11:30:35.812Z,6.60
2019-02-06T11:31:35.772Z,9.00
2019-02-06T11:32:35.730Z,8.60
2019-02-06T11:33:35.719Z,7.70
2019-02-06T11:34:35.691Z,6.50
2019-02-06T11:35:35.607Z,6.50
2019-02-06T11:36:35.584Z,6.10
2019-02-06T11:37:35.531Z,6.30
2019-02-06T11:38:35.494Z,7.10
2019-02-06T11:39:35.449Z,8.20
2019-02-06T11:40:35.403Z,7.50
2019-02-06T11:41:35.368Z,7.60
2019-02-06T11:42:35.349Z,6.10
2019-02-06T11:43:35.291Z,6.60
2019-02-06T11:44:35.263Z,7.60
2019-02-06T11:45:35.232Z,7.00
2019-02-06T11:46:35.164Z,8.20
2019-02-06T11:47:35.149Z,7.60
2019-02-06T11:48:35.087Z,7.80
2019-02-06T11:49:35.042Z,7.50
2019-02-06T11:50:35.003Z,6.60
2019-02-06T11:51:34.965Z,7.30
2019-02-06T11:52:34.925Z,7.30
2019-02-06T11:53:34.878Z,7.30
2019-02-06T11:54:34.842Z,8.60
2019-02-06T11:55:34.803Z,7.50
2019-02-06T11:56:34.763Z,6.10
2019-02-06T11:57:34.726Z,6.30
2019-02-06T11:58:34.682Z,6.20
2019-02-06T11:59:34.650Z,6.90
2019-02-06T12:00:34.598Z,6.80
2019-02-06T12:01:34.561Z,7.30
2019-02-06T12:02:37.370Z,7.30
2019-02-06T12:03:34.483Z,5.90
2019-02-06T12:04:34.505Z,6.60
2019-02-06T12:05:34.484Z,5.60
2019-02-06T12:06:34.362Z,9.00
2019-02-06T12:07:34.319Z,5.60
2019-02-06T12:08:34.354Z,6.50
2019-02-06T12:09:34.275Z,6.00
2019-02-06T12:10:34.200Z,6.90
2019-02-06T12:11:34.160Z,7.00
2019-02-06T12:12:34.115Z,6.60
2019-02-06T12:13:34.075Z,6.20
2019-02-06T12:14:34.037Z,6.80
2019-02-06T12:15:34.002Z,7.80
2019-02-06T12:16:33.962Z,6.40
2019-02-06T12:17:33.921Z,6.30
2019-02-06T12:18:33.880Z,7.20
2019-02-06T12:19:33.836Z,7.40
2019-02-06T12:20:33.794Z,7.00
2019-02-06T12:21:33.759Z,6.20
2019-02-06T12:22:33.718Z,6.00
2019-02-06T12:23:33.678Z,8.70
2019-02-06T12:24:33.642Z,7.00
2019-02-06T12:25:34.458Z,7.10
2019-02-06T12:26:33.697Z,6.40
2019-02-06T12:27:33.525Z,7.30
2019-02-06T12:28:33.480Z,7.30
2019-02-06T12:29:33.442Z,7.80
2019-02-06T12:30:33.397Z,7.80
2019-02-06T12:31:33.361Z,6.60
2019-02-06T12:32:33.316Z,8.00
2019-02-06T12:33:33.277Z,7.60
2019-02-06T12:34:33.237Z,6.70
2019-02-06T12:35:33.250Z,7.20
2019-02-06T12:36:33.186Z,7.60
2019-02-06T12:37:33.120Z,8.10
2019-02-06T12:38:33.082Z,7.60
2019-02-06T12:39:33.039Z,6.20
2019-02-06T12:40:33.050Z,5.80
2019-02-06T12:41:32.993Z,7.00
2019-02-06T12:42:32.942Z,5.20
2019-02-06T12:43:32.879Z,7.00
2019-02-06T12:44:32.838Z,5.70
2019-02-06T12:45:32.797Z,5.50
2019-02-06T12:46:32.760Z,5.60
2019-02-06T12:47:32.728Z,5.70
2019-02-06T12:48:32.687Z,6.20
2019-02-06T12:49:32.645Z,8.50
2019-02-06T12:50:32.603Z,5.90
2019-02-06T12:51:32.566Z,5.80
2019-02-06T12:52:32.520Z,5.80
2019-02-06T12:53:32.481Z,7.00
2019-02-06T12:54:32.442Z,5.80
2019-02-06T12:55:32.404Z,5.70
2019-02-06T12:56:32.372Z,5.30
2019-02-06T12:57:36.776Z,5.90
2019-02-06T12:58:32.284Z,6.20
2019-02-06T12:59:32.248Z,4.70
2019-02-06T13:00:32.213Z,7.50
2019-02-06T13:01:32.169Z,5.00
2019-02-06T13:02:32.128Z,5.10
2019-02-06T13:03:32.090Z,6.70
2019-02-06T13:04:32.045Z,5.70
2019-02-06T13:05:32.006Z,5.60
2019-02-06T13:06:31.985Z,5.60
2019-02-06T13:07:31.931Z,6.10
2019-02-06T13:08:31.894Z,7.10
2019-02-06T13:09:31.860Z,5.20
2019-02-06T13:10:34.288Z,6.50
2019-02-06T13:11:31.772Z,5.50
2019-02-06T13:12:31.736Z,6.70
2019-02-06T13:13:31.699Z,6.20
2019-02-06T13:14:31.655Z,5.70
2019-02-06T13:15:31.615Z,6.30
2019-02-06T13:16:31.576Z,6.10
2019-02-06T13:17:31.537Z,5.40
2019-02-06T13:18:31.498Z,7.00
2019-02-06T13:19:31.459Z,6.30
2019-02-06T13:20:31.423Z,6.20
2019-02-06T13:21:31.382Z,5.80
2019-02-06T13:22:31.345Z,5.70
2019-02-06T13:23:31.301Z,7.20
2019-02-06T13:24:31.260Z,5.90
2019-02-06T13:25:31.221Z,6.60
2019-02-06T13:26:31.184Z,7.00
2019-02-06T13:27:31.147Z,6.20
2019-02-06T13:28:31.110Z,5.90
2019-02-06T13:29:31.062Z,6.20
2019-02-06T13:30:31.028Z,6.00
2019-02-06T13:31:30.989Z,6.90
2019-02-06T13:32:30.961Z,6.10
2019-02-06T13:33:30.913Z,5.80
2019-02-06T13:34:30.872Z,5.60
2019-02-06T13:35:30.830Z,7.10
2019-02-06T13:36:30.791Z,5.60
2019-02-06T13:37:30.749Z,7.80
2019-02-06T13:38:30.723Z,5.90
2019-02-06T13:39:30.689Z,6.60
2019-02-06T13:40:30.641Z,6.80
2019-02-06T13:41:30.600Z,6.30
2019-02-06T13:42:30.559Z,7.20
2019-02-06T13:43:30.519Z,7.80
2019-02-06T13:44:30.477Z,6.50
2019-02-06T13:45:30.442Z,6.20
2019-02-06T13:46:30.402Z,7.00
2019-02-06T13:47:30.361Z,5.80
2019-02-06T13:48:33.548Z,7.10
2019-02-06T13:49:30.281Z,6.60
2019-02-06T13:50:30.240Z,7.10
2019-02-06T13:51:30.205Z,7.00
2019-02-06T13:52:30.170Z,6.30
2019-02-06T13:53:30.123Z,7.00
2019-02-06T13:54:30.087Z,6.80
2019-02-06T13:55:30.049Z,6.90
2019-02-06T13:56:30.003Z,6.70
2019-02-06T13:57:33.869Z,6.80
2019-02-06T13:58:29.927Z,9.20
2019-02-06T13:59:29.891Z,8.80
2019-02-06T14:00:29.851Z,8.40
2019-02-06T14:01:29.813Z,6.60
2019-02-06T14:02:29.769Z,8.40
2019-02-06T14:03:29.749Z,6.70
2019-02-06T14:04:29.697Z,7.20
2019-02-06T14:05:29.652Z,7.60
2019-02-06T14:06:29.612Z,7.70
2019-02-06T14:07:29.571Z,6.70
2019-02-06T14:08:29.528Z,8.10
2019-02-06T14:09:29.488Z,6.90
2019-02-06T14:10:29.450Z,7.60
2019-02-06T14:11:29.414Z,6.90
2019-02-06T14:12:29.378Z,8.00
2019-02-06T14:13:29.338Z,7.30
2019-02-06T14:14:29.295Z,6.90
2019-02-06T14:15:29.252Z,7.80
2019-02-06T14:16:29.214Z,7.10
2019-02-06T14:17:29.179Z,7.40
2019-02-06T14:18:29.135Z,8.30
2019-02-06T14:19:29.095Z,7.70
2019-02-06T14:20:29.052Z,7.10
2019-02-06T14:21:29.013Z,7.00
2019-02-06T14:22:28.995Z,7.80
2019-02-06T14:23:28.941Z,8.00
2019-02-06T14:24:28.906Z,7.20
2019-02-06T14:25:28.861Z,8.20
2019-02-06T14:26:28.831Z,7.30
2019-02-06T14:27:28.901Z,7.60
2019-02-06T14:28:28.737Z,7.30
2019-02-06T14:29:28.701Z,7.10
2019-02-06T14:30:28.658Z,7.00
2019-02-06T14:31:28.624Z,6.60
2019-02-06T14:32:28.596Z,5.80
2019-02-06T14:33:28.960Z,6.50
2019-02-06T14:34:28.499Z,6.70
2019-02-06T14:35:28.461Z,8.40
2019-02-06T14:36:28.452Z,6.50
2019-02-06T14:37:28.383Z,5.50
2019-02-06T14:38:28.342Z,7.60
2019-02-06T14:39:28.300Z,7.60
2019-02-06T14:40:28.260Z,7.30
2019-02-06T14:41:28.217Z,7.50
2019-02-06T14:42:28.180Z,6.00
2019-02-06T14:43:28.142Z,7.60
2019-02-06T14:44:28.107Z,6.90
2019-02-06T14:45:28.070Z,6.90
2019-02-06T14:46:28.024Z,6.00
2019-02-06T14:47:27.981Z,7.10
2019-02-06T14:48:27.943Z,6.70
2019-02-06T14:49:27.910Z,6.10
2019-02-06T14:50:27.863Z,5.40
2019-02-06T14:51:27.846Z,5.80
2019-02-06T14:52:27.785Z,6.60
2019-02-06T14:53:27.753Z,5.60
2019-02-06T14:54:27.704Z,6.00
2019-02-06T14:55:27.668Z,6.90
2019-02-06T14:56:27.635Z,5.70
2019-02-06T14:57:27.592Z,7.40
2019-02-06T14:58:27.568Z,5.80
2019-02-06T14:59:27.506Z,5.80
2019-02-06T15:00:27.474Z,5.60
2019-02-06T15:01:27.422Z,5.20
2019-02-06T15:02:27.386Z,6.20
2019-02-06T15:03:27.345Z,5.70
2019-02-06T15:04:27.316Z,5.90
2019-02-06T15:05:27.262Z,5.50
2019-02-06T15:06:27.224Z,6.40
2019-02-06T15:07:27.215Z,5.80
2019-02-06T15:08:27.179Z,5.60
2019-02-06T15:09:27.119Z,6.20
2019-02-06T15:10:27.069Z,7.60
2019-02-06T15:11:27.025Z,6.20
2019-02-06T15:12:27.014Z,7.50
2019-02-06T15:13:26.945Z,6.70
2019-02-06T15:14:26.930Z,7.50
2019-02-06T15:15:26.872Z,5.80
2019-02-06T15:16:26.831Z,6.40
2019-02-06T15:17:26.845Z,6.60
2019-02-06T15:18:27.160Z,7.30
2019-02-06T15:19:26.730Z,7.20
2019-02-06T15:20:26.670Z,5.50
2019-02-06T15:21:26.640Z,6.50
2019-02-06T15:22:26.590Z,6.40
2019-02-06T15:23:32.843Z,5.40
2019-02-06T15:24:26.505Z,6.30
2019-02-06T15:25:26.465Z,6.70
2019-02-06T15:26:26.429Z,5.60
2019-02-06T15:27:26.389Z,6.30
2019-02-06T15:28:26.350Z,5.50
2019-02-06T15:29:26.338Z,5.50
2019-02-06T15:30:26.272Z,5.90
2019-02-06T15:31:26.246Z,7.80
2019-02-06T15:32:26.191Z,5.30
2019-02-06T15:33:26.272Z,5.70
2019-02-06T15:34:26.109Z,6.40
2019-02-06T15:35:26.067Z,4.90
2019-02-06T15:36:26.029Z,4.80
2019-02-06T15:37:25.985Z,5.50
2019-02-06T15:38:25.944Z,5.60
2019-02-06T15:39:25.911Z,5.40
2019-02-06T15:40:25.877Z,6.80
2019-02-06T15:41:31.228Z,5.30
2019-02-06T15:42:25.786Z,6.30
2019-02-06T15:43:25.746Z,5.10
2019-02-06T15:44:25.705Z,5.80
2019-02-06T15:45:25.661Z,5.50
2019-02-06T15:46:25.628Z,6.00
2019-02-06T15:47:25.585Z,5.40
2019-02-06T15:48:25.548Z,5.20
2019-02-06T15:49:25.517Z,8.00
2019-02-06T15:50:26.746Z,6.60
2019-02-06T15:51:25.422Z,6.60
2019-02-06T16:03:50.011Z,5.10
2019-02-06T16:04:39.876Z,4.70
2019-02-06T16:05:39.830Z,5.90
2019-02-06T16:06:39.784Z,5.50
2019-02-06T16:07:39.742Z,5.60
2019-02-06T16:08:39.699Z,5.90
2019-02-06T16:09:39.671Z,6.90
2019-02-06T16:10:39.609Z,6.20
2019-02-06T16:11:42.274Z,5.80
2019-02-06T16:12:39.523Z,6.30
2019-02-06T16:13:39.483Z,6.30
2019-02-06T16:14:39.451Z,5.90
2019-02-06T16:15:39.406Z,5.90
2019-02-06T16:16:39.360Z,7.10
2019-02-06T16:17:39.315Z,5.40
2019-02-06T16:18:39.278Z,5.50
2019-02-06T16:19:39.260Z,6.60
2019-02-06T16:20:39.201Z,5.10
2019-02-06T16:21:39.175Z,5.90
2019-02-06T16:22:39.110Z,5.20
2019-02-06T16:23:39.067Z,6.10
2019-02-06T16:24:39.028Z,5.30
2019-02-06T16:25:38.993Z,5.70
2019-02-06T16:26:38.947Z,6.10
2019-02-06T16:27:38.908Z,6.80
2019-02-06T16:28:38.869Z,5.50
2019-02-06T16:29:38.828Z,6.50
2019-02-06T16:30:38.783Z,5.20
2019-02-06T16:31:38.739Z,6.30
2019-02-06T16:32:38.705Z,5.80
2019-02-06T16:33:38.663Z,6.00
2019-02-06T16:34:38.618Z,5.80
2019-02-06T16:35:38.577Z,6.20
2019-02-06T16:36:38.534Z,6.50
2019-02-06T16:37:38.497Z,8.40
2019-02-06T16:38:38.497Z,8.20
2019-02-06T16:39:38.417Z,7.60
2019-02-06T16:40:38.410Z,7.90
2019-02-06T16:41:38.363Z,9.30
2019-02-06T16:42:38.292Z,8.70
2019-02-06T16:43:38.248Z,8.30
2019-02-06T16:44:38.207Z,8.50
2019-02-06T16:45:38.169Z,8.00
2019-02-06T16:46:38.129Z,8.90
2019-02-06T16:47:45.358Z,9.60
2019-02-06T16:48:38.043Z,8.60
2019-02-06T16:49:38.005Z,8.80
2019-02-06T16:50:37.969Z,8.20
2019-02-06T16:51:37.927Z,10.20
2019-02-06T16:52:37.886Z,9.40
2019-02-06T16:53:37.841Z,9.10
2019-02-06T16:54:37.839Z,10.00
2019-02-06T16:55:46.442Z,9.50
2019-02-06T16:57:49.821Z,9.20
2019-02-06T17:00:23.225Z,10.00
2019-02-06T17:01:22.790Z,8.90
2019-02-06T17:03:26.182Z,12.20
2019-02-06T17:04:18.477Z,10.40
2019-02-06T17:05:18.431Z,10.50
2019-02-06T17:06:18.390Z,10.10
2019-02-06T17:07:18.352Z,11.90
2019-02-06T17:08:18.302Z,12.40
2019-02-06T17:09:18.264Z,12.70
2019-02-06T17:10:18.222Z,12.30
2019-02-06T17:11:18.179Z,11.50
2019-02-06T17:12:18.143Z,12.30
2019-02-06T17:13:18.102Z,11.70
2019-02-06T17:14:18.056Z,11.60
2019-02-06T17:15:18.015Z,12.30
2019-02-06T17:16:17.977Z,13.40
2019-02-06T17:17:17.935Z,12.50
2019-02-06T17:18:26.570Z,13.00
2019-02-06T17:20:32.338Z,14.90
2019-02-06T17:21:31.901Z,14.20
2019-02-06T17:23:27.685Z,15.40
2019-02-06T17:24:36.317Z,13.40
2019-02-06T17:26:32.038Z,15.00
2019-02-06T17:27:40.671Z,15.20
2019-02-06T17:29:36.375Z,15.60
2019-02-06T17:30:36.330Z,15.40
2019-02-06T17:31:36.315Z,14.70
2019-02-06T17:32:36.241Z,17.00
2019-02-06T17:33:36.207Z,15.40
2019-02-06T17:34:36.157Z,15.80
2019-02-06T17:35:36.123Z,15.10
2019-02-06T17:36:36.079Z,16.70
2019-02-06T17:37:36.032Z,15.50
2019-02-06T17:38:35.989Z,18.00
2019-02-06T17:39:35.963Z,13.90
2019-02-06T17:40:35.910Z,16.20
2019-02-06T17:41:35.869Z,15.60
2019-02-06T17:42:35.828Z,16.70
2019-02-06T17:43:35.781Z,16.80
2019-02-06T17:44:35.741Z,14.80
2019-02-06T17:45:35.698Z,16.10
2019-02-06T17:46:35.656Z,16.10
2019-02-06T17:47:35.625Z,17.30
2019-02-06T17:48:35.576Z,16.00
2019-02-06T17:49:35.538Z,15.40
2019-02-06T17:50:35.504Z,16.00
2019-02-06T17:51:35.454Z,16.40
2019-02-06T17:52:35.407Z,16.90
2019-02-06T17:53:35.368Z,16.50
2019-02-06T17:54:35.433Z,17.00
2019-02-06T17:55:35.280Z,16.40